Главная страница
METAR-TAF:

METAR-TAF

Аэропорты :

Самсун, Турция

широта: 41-15-15N, долгота: 036-34-03E, высота над уровнем моря: 5 м

Текущие метеонаблюдения

Эта сводка был подготовлена 48 минут назад, в 02:50 UTC
Ветер 4 Узел от юго-восточный
Температура 17°C
Влажность 88%
Давление 1011 hPa
Видимость 10 км и более
небольшая облачность на высоте 3600 фута

METAR: LTFH 150250Z 14004KT 9999 FEW036 17/15 Q1011 NOSIG

Время: 06:38 (03:38 UTC)

Прогноз

Эта сводка был подготовлена 1 час и 58 минут назад, в 01:40 UTC
Прогноз действительный с 15-го 03 UTC до 15-го 12 UTC
Ветер 9 Узел от северо-западный
Видимость 10 км и более
небольшая облачность на высоте 3600 фута

TAF: LTFH 150140Z 1503/1512 32009KT 9999 FEW036

Метеонаблюдения и прогнозы для более 4000 аэропортов (сводки METAR и TAF).

Имеющиеся станции представлены на карте желтыми и красными точками.

Чтобы увидеть название станции, наведите на нее мышь.

Затем щелкните, чтобы увидеть метеонаблюдения и метеопрогнозы.

Управление картой: чтобы увеличить масштаб, щелкните зеленые кнопки с черным крестиком; чтобы уменьшить масштаб, щелкните зеленую кнопку с тире; для просмотра соседних карт щелкайте зеленые стрелки.


METAR-TAF: